Southern Ontario METAR Reports

CYSN - St.Catharines
Updated: 11/28/2021 9:00pm
NOT Current
Light snow, Overcast
Light snow, Overcast
 Wind from NNE
Wind: NNE 7 km/h
Temperature: 0°C
Wind Chill: -3°C
Dew Point: -1°C
Humidity: 93%
Barometer: 1010.2 hPa
Summary: Light Snow
Clouds: Overcast
Visibility: 6 km
Cloud details: Overcast 396 m
2021/11/29 02:00 CYSN 290200Z 02004KT 4SM -SN OVC013 00/M01 A2983 RMK SC8 LAST STFD OBS/NEXT 291200Z SLP108
CYHM - Hamilton
Updated: 11/29/2021 4:00am
Mostly cloudy
Mostly cloudy
 Wind from W
Wind: W 7 km/h
Temperature: -3°C
Wind Chill: -6°C
Dew Point: -4°C
Humidity: 93%
Barometer: 1013.5 hPa
Clouds: Mostly cloudy
Visibility: 24 km
Cloud details: Mostly cloudy 579 m
2021/11/29 09:00 CYHM 290900Z 28004KT 15SM BKN019 M03/M04 A2993 RMK SC7 SLP147
 
CYYZ - Toronto
Updated: 11/29/2021 4:00am
Mostly cloudy
Mostly cloudy
 Wind from WSW
Wind: WSW 6 km/h
Temperature: -4°C
Dew Point: -4°C
Humidity: 100%
Barometer: 1013.5 hPa
Clouds: Mostly cloudy
Visibility: 24 km
Cloud details: Partly cloudy 640 m
Mostly cloudy 2134 m
2021/11/29 09:00 CYYZ 290900Z 24003KT 15SM SCT021 BKN070 M04/M04 A2993 RMK SC4AC1 SLP145
CYKF - Waterloo
Updated: 11/29/2021 4:00am
Clear
Clear
 Wind from NW
Wind: NW 11 km/h
Temperature: -6°C
Wind Chill: -11°C
Dew Point: -8°C
Humidity: 86%
Barometer: 1013.2 hPa
Clouds: Clear
Visibility: 14 km
2021/11/29 09:00 CYKF 290900Z AUTO 32006KT 9SM CLR M06/M08 A2992 RMK SLP149
 
CYXU - London
Updated: 11/29/2021 4:00am
Mostly cloudy
Mostly cloudy
 Wind from NW
Wind: NW 4 km/h
Temperature: -4°C
Dew Point: -4°C
Humidity: 100%
Barometer: 1014.6 hPa
Clouds: Mostly cloudy
Visibility: 24 km
Cloud details: Mostly cloudy 1280 m
2021/11/29 09:00 CYXU 290900Z 31002KT 15SM BKN042 M04/M04 A2996 RMK SC6 SLP158
CYQG - Windsor
Updated: 11/29/2021 4:00am
Clear
Clear
 Wind from W
Wind: W 17 km/h
Temperature: -2°C
Wind Chill: -7°C
Dew Point: -4°C
Humidity: 86%
Barometer: 1016.9 hPa
Clouds: Clear
Visibility: 14 km
2021/11/29 09:00 CYQG 290900Z AUTO 28009KT 9SM CLR M02/M04 A3003 RMK SLP179
 
CYZR - Sarnia
Updated: 11/29/2021 4:00am
Partly cloudy
Partly cloudy
 Wind from WNW
Wind: WNW 20 km/h
Temperature: -1°C
Wind Chill: -7°C
Dew Point: -3°C
Humidity: 86%
Barometer: 1015.6 hPa
Clouds: Partly cloudy
Visibility: 14 km
Cloud details: Few Clouds 396 m
Partly cloudy 1524 m
2021/11/29 09:00 CYZR 290900Z AUTO 29011KT 9SM FEW013 SCT050 M01/M03 A2999 RMK SLP163
CYVV - Wiarton
Updated: 11/29/2021 4:00am
Few Clouds
Few Clouds
 Wind from S
Wind: S 9 km/h
Temperature: -8°C
Wind Chill: -12°C
Dew Point: -9°C
Humidity: 93%
Barometer: 1013.5 hPa
Clouds: Few Clouds
Visibility: 24 km
Cloud details: Few Clouds 7620 m
2021/11/29 09:00 CYVV 290900Z 17005KT 15SM FEW250 M08/M09 A2993 RMK CI1 SLP150
 
CYPQ - Peterborough
Updated: 11/29/2021 4:00am
Overcast
Overcast
 Wind from W
Wind: W 4 km/h
Temperature: -12°C
Dew Point: -13°C
Humidity: 92%
Barometer: 1012.9 hPa
Clouds: Overcast
Visibility: 14 km
Cloud details: Few Clouds 671 m
Overcast 4572 m
2021/11/29 09:00 CYPQ 290900Z AUTO 28002KT 9SM FEW022 OVC150 M12/M13 A2991 RMK SLP143
CYTR - Trenton
Updated: 11/29/2021 4:00am
Few Clouds
Few Clouds
 Wind from NNW
Wind: NNW 11 km/h
Temperature: -8°C
Wind Chill: -13°C
Dew Point: -10°C
Humidity: 86%
Barometer: 1013.5 hPa
Clouds: Few Clouds
Visibility: 14 km
Cloud details: Few Clouds 640 m
2021/11/29 09:00 CYTR 290900Z AUTO 33006KT 9SM FEW021 M08/M10 A2993 RMK SLP141